Time;durP1;ratioP1;P1;durP2;ratioP2;P2;SDS_P1;SDS_P2;PMS_P1;PMS_P2;Temp;Humidity;BMP_temperature;BMP_pressure;BME280_temperature;BME280_humidity;BME280_pressure;Samples;Min_cycle;Max_cycle;Signal;HPM_P1;HPM_P2
2023/01/20 00:00:08;;;;;;;7.10;3.22;;;;;;;13.12;57.20;100473.44;5001548;28;19925;-88
2023/01/20 02:06:57;;;;;;;14.02;7.72;;;;;;;11.17;72.72;100396.97;4874606;26;20041;-89
2023/01/20 02:09:25;;;;;;;12.68;7.07;;;;;;;11.19;72.73;100397.59;5035012;28;20087;-87
2023/01/20 02:12:12;;;;;;;14.10;7.43;;;;;;;11.11;72.51;100390.41;5022024;28;20055;-87
2023/01/20 02:14:43;;;;;;;13.52;7.30;;;;;;;11.19;72.54;100403.84;5037002;28;20056;-91
2023/01/20 02:17:59;;;;;;;12.30;7.88;;;;;;;11.25;72.73;100402.31;5048888;28;20057;-93
2023/01/20 02:20:57;;;;;;;13.20;7.35;;;;;;;11.20;72.79;100389.38;5050711;28;20037;-90
2023/01/20 02:23:56;;;;;;;11.75;7.22;;;;;;;11.24;72.72;100394.41;5051648;28;20051;-92
2023/01/20 02:27:01;;;;;;;14.23;7.88;;;;;;;11.27;72.62;100392.22;5053077;28;20045;-93
2023/01/20 02:30:21;;;;;;;12.90;7.18;;;;;;;11.20;72.77;100389.38;5049311;28;20059;-91
2023/01/20 02:33:10;;;;;;;13.73;7.28;;;;;;;11.10;72.48;100361.81;5051888;28;20029;-93
2023/01/20 02:51:39;;;;;;;16.40;7.88;;;;;;;11.05;72.71;100341.81;4993853;28;20038;-90
2023/01/20 02:55:13;;;;;;;16.58;8.25;;;;;;;11.18;73.17;100371.72;4993737;28;20047;-90
2023/01/20 02:57:48;;;;;;;12.60;8.40;;;;;;;11.05;73.37;100336.44;4972197;28;20105;-90
2023/01/20 03:00:52;;;;;;;15.00;8.65;;;;;;;11.15;73.97;100364.84;4978470;28;20045;-90
2023/01/20 03:04:03;;;;;;;15.13;9.10;;;;;;;10.78;74.08;100311.63;4961995;28;20042;-90
2023/01/20 03:06:50;;;;;;;17.00;8.60;;;;;;;11.04;74.37;100356.28;4979864;28;20035;-90
2023/01/20 03:09:59;;;;;;;17.85;9.63;;;;;;;10.86;75.06;100359.16;4963464;28;20035;-90
2023/01/20 03:12:50;;;;;;;13.77;8.80;;;;;;;11.02;75.01;100364.53;4987463;28;20121;-86
2023/01/20 03:15:17;;;;;;;17.33;9.50;;;;;;;10.93;75.09;100357.47;4975390;28;20113;-87
2023/01/20 03:17:44;;;;;;;14.80;9.20;;;;;;;10.95;75.02;100358.16;4965959;28;20051;-87
2023/01/20 03:20:12;;;;;;;15.13;9.25;;;;;;;10.81;75.01;100340.00;4965379;28;20054;-91
2023/01/20 03:22:52;;;;;;;15.75;8.80;;;;;;;11.00;75.12;100382.69;4969232;28;20137;-90
2023/01/20 03:25:47;;;;;;;16.33;8.55;;;;;;;11.02;75.13;100374.44;4975634;28;20050;-93
2023/01/20 03:28:14;;;;;;;;;;;;;;;10.98;75.14;100373.97;4988645;28;20055;-89
2023/01/20 03:31:12;;;;;;;;;;;;;;;11.03;74.72;100382.34;4970693;28;19936;-91
2023/01/20 03:34:26;;;;;;;16.15;8.38;;;;;;;10.82;75.07;100347.09;4992189;28;19918;-93
2023/01/20 03:37:12;;;;;;;17.70;9.00;;;;;;;11.00;75.09;100377.28;4977476;28;20031;-93
2023/01/20 03:40:19;;;;;;;14.52;9.55;;;;;;;10.93;75.32;100373.59;4977515;28;20031;-91
2023/01/20 03:43:02;;;;;;;17.65;9.25;;;;;;;10.82;75.45;100363.22;4975910;28;20034;-91
2023/01/20 03:45:43;;;;;;;15.77;9.10;;;;;;;10.76;74.70;100327.91;4993153;28;20115;-93
2023/01/20 03:48:41;;;;;;;16.73;9.45;;;;;;;10.90;74.95;100361.34;4977597;28;20062;-88
2023/01/20 03:51:34;;;;;;;16.67;9.18;;;;;;;11.01;74.54;100368.22;4991189;28;20038;-89
2023/01/20 03:54:04;;;;;;;15.63;8.52;;;;;;;10.94;73.88;100351.09;4931659;29;20044;-89
2023/01/20 03:57:16;;;;;;;16.50;9.13;;;;;;;10.97;74.29;100372.25;4920470;29;20108;-90
2023/01/20 03:59:44;;;;;;;15.95;8.93;;;;;;;10.90;74.08;100355.13;4985690;28;20051;-89
2023/01/20 04:02:47;;;;;;;13.98;8.95;;;;;;;10.81;74.11;100323.88;4969230;28;20117;-92
2023/01/20 04:05:57;;;;;;;15.98;9.10;;;;;;;10.95;74.22;100356.28;4985088;28;20031;-93
2023/01/20 04:09:30;;;;;;;14.88;9.30;;;;;;;11.08;73.96;100369.22;4994949;28;20026;-91
2023/01/20 04:12:07;;;;;;;16.15;8.93;;;;;;;10.94;73.44;100351.09;4991281;28;20039;-92
2023/01/20 04:29:59;;;;;;;20.08;8.43;;;;;;;11.18;72.29;100375.25;5009784;28;20164;-88
2023/01/20 04:32:29;;;;;;;11.18;7.80;;;;;;;11.25;72.21;100386.16;4981499;28;20038;-90
2023/01/20 04:34:55;;;;;;;14.02;8.13;;;;;;;11.20;72.58;100389.38;5015255;28;20058;-86
2023/01/20 04:38:05;;;;;;;12.73;8.30;;;;;;;11.12;72.51;100370.56;4963577;28;20031;-88
2023/01/20 05:06:43;;;;;;;18.98;8.77;;;;;;;11.38;72.00;100412.56;4961291;28;20051;-87
2023/01/20 05:09:14;;;;;;;17.77;8.77;;;;;;;11.27;72.03;100404.84;4927760;29;20051;-85
2023/01/20 05:11:40;;;;;;;17.02;9.13;;;;;;;11.32;72.28;100405.16;4943003;29;20054;-86
2023/01/20 05:14:07;;;;;;;;;;;;;;;11.44;72.15;100424.47;4908862;29;20232;-83
2023/01/20 05:17:06;;;;;;;15.35;9.23;;;;;;;11.37;72.41;100417.06;4964278;28;19910;-89
2023/01/20 05:19:57;;;;;;;14.05;8.90;;;;;;;11.39;72.19;100400.75;4957325;29;20043;-86
2023/01/20 05:22:24;;;;;;;15.98;8.60;;;;;;;11.18;72.29;100372.56;4956148;28;20039;-87
2023/01/20 05:24:52;;;;;;;17.27;8.98;;;;;;;11.26;72.41;100382.47;4931677;29;20521;-84
2023/01/20 05:27:51;;;;;;;;;;;;;;;;;;;;;
2023/01/20 05:30:17;;;;;;;15.02;9.18;;;;;;;11.18;72.80;100364.47;4956531;29;20055;-88
2023/01/20 05:33:11;;;;;;;17.05;9.63;;;;;;;11.06;72.84;100357.78;4930555;29;20032;-88
2023/01/20 05:35:37;;;;;;;17.48;9.57;;;;;;;11.10;72.36;100361.00;4936629;29;20117;-88
2023/01/20 05:38:02;;;;;;;16.10;9.68;;;;;;;11.08;72.59;100361.16;4930215;28;20043;-87
2023/01/20 05:40:31;;;;;;;16.77;9.70;;;;;;;11.23;72.70;100380.13;4942746;29;20361;-88
2023/01/20 05:43:01;;;;;;;20.50;10.27;;;;;;;11.21;72.59;100384.81;4947750;29;20043;-87
2023/01/20 05:45:31;;;;;;;18.27;9.88;;;;;;;11.11;72.75;100366.19;4950464;28;20063;-88
2023/01/20 05:47:59;;;;;;;18.02;9.68;;;;;;;11.25;72.81;100390.72;4963409;28;20043;-87
2023/01/20 05:50:26;;;;;;;17.38;10.13;;;;;;;11.25;72.84;100379.94;4944367;29;20043;-87
2023/01/20 05:52:52;;;;;;;17.20;9.80;;;;;;;11.15;72.81;100374.75;4926658;29;20130;-87
2023/01/20 05:55:18;;;;;;;;;;;;;;;11.45;72.25;100405.47;4928703;29;20043;-87
2023/01/20 05:57:44;;;;;;;13.80;8.77;;;;;;;11.49;71.91;100404.09;4948957;29;19996;-88
2023/01/20 06:00:13;;;;;;;;;;;;;;;11.56;71.81;100405.06;4935326;28;20042;-89
2023/01/20 06:02:39;;;;;;;16.25;8.60;;;;;;;11.52;71.76;100387.63;4958512;28;19929;-90
2023/01/20 06:05:37;;;;;;;12.80;8.88;;;;;;;11.44;71.55;100371.47;4965292;28;20047;-91
2023/01/20 06:08:06;;;;;;;17.58;9.30;;;;;;;11.71;71.20;100415.97;4980067;28;20090;-89
2023/01/20 06:10:34;;;;;;;16.60;9.35;;;;;;;11.44;71.40;100379.56;4976390;28;20027;-88
2023/01/20 06:13:03;;;;;;;17.65;8.98;;;;;;;11.51;70.70;100368.94;4950721;28;20042;-88
2023/01/20 06:15:30;;;;;;;15.02;9.93;;;;;;;11.74;70.82;100401.31;4998007;28;20027;-87
2023/01/20 06:18:03;;;;;;;16.95;9.38;;;;;;;11.71;70.42;100378.28;4987814;28;20065;-87
2023/01/20 06:20:31;;;;;;;14.82;8.65;;;;;;;11.73;69.96;100372.69;4988831;28;20053;-87
2023/01/20 06:22:59;;;;;;;15.60;8.65;;;;;;;12.00;69.61;100406.44;4973977;28;20178;-87
2023/01/20 06:25:28;;;;;;;19.70;9.18;;;;;;;11.76;69.60;100375.06;5002401;28;20073;-89
2023/01/20 06:27:56;;;;;;;19.48;8.52;;;;;;;12.09;69.26;100423.41;4972024;28;20054;-88
2023/01/20 06:30:34;;;;;;;16.33;8.35;;;;;;;11.97;69.11;100404.94;5003635;28;20077;-89
2023/01/20 06:33:09;;;;;;;15.63;7.80;;;;;;;11.94;68.66;100391.84;5017918;28;20030;-87
2023/01/20 06:35:39;;;;;;;12.10;8.00;;;;;;;12.30;68.13;100418.22;4974164;28;20069;-88
2023/01/20 06:38:07;;;;;;;16.40;8.70;;;;;;;12.12;67.71;100385.34;4987501;28;20342;-89
2023/01/20 06:40:34;;;;;;;18.35;8.15;;;;;;;12.15;67.41;100382.28;5004005;28;20031;-88
2023/01/20 06:43:02;;;;;;;16.52;7.97;;;;;;;12.43;67.03;100407.72;4992687;28;20034;-89
2023/01/20 06:45:32;;;;;;;16.13;7.85;;;;;;;12.30;66.97;100375.09;4997044;28;20030;-88
2023/01/20 06:48:08;;;;;;;16.65;8.75;;;;;;;12.42;66.56;100380.91;4987604;28;20133;-89
2023/01/20 06:50:42;;;;;;;12.13;7.30;;;;;;;12.62;65.95;100383.97;4990012;28;20047;-88
2023/01/20 06:53:12;;;;;;;15.73;7.60;;;;;;;12.73;65.21;100377.31;4987634;28;20042;-89
2023/01/20 06:55:38;;;;;;;13.85;7.00;;;;;;;12.74;65.32;100390.63;4970846;28;20035;-87
2023/01/20 06:58:11;;;;;;;16.45;7.43;;;;;;;12.95;64.58;100399.88;4995609;28;20117;-87
2023/01/20 07:00:37;;;;;;;8.85;6.05;;;;;;;12.92;64.07;100384.88;4981587;28;20035;-89
2023/01/20 07:03:02;;;;;;;;;;;;;;;12.99;63.72;100390.38;4987347;28;20043;-86
2023/01/20 07:14:33;;;;;;;13.98;6.30;;;;;;;13.13;61.94;100370.66;4982520;28;20045;-86
2023/01/20 07:17:08;;;;;;;11.82;6.60;;;;;;;13.33;61.61;100391.78;4992192;28;20081;-90
2023/01/20 07:19:34;;;;;;;10.10;6.47;;;;;;;13.33;61.41;100370.19;4971795;28;20553;-88
2023/01/20 07:22:01;;;;;;;;;;;;;;;13.78;60.51;100406.09;5004605;28;20368;-86
2023/01/20 07:24:28;;;;;;;9.23;5.95;;;;;;;13.84;60.46;100399.94;5014465;28;19952;-89
2023/01/20 07:26:56;;;;;;;14.48;6.40;;;;;;;13.82;59.84;100356.06;4986924;28;20090;-86
2023/01/20 07:29:25;;;;;;;12.20;6.55;;;;;;;13.91;59.42;100368.44;4994211;28;20053;-89
2023/01/20 07:31:54;;;;;;;11.43;6.30;;;;;;;14.13;59.08;100366.59;4987197;28;20133;-88
2023/01/20 07:34:28;;;;;;;18.27;6.63;;;;;;;14.34;58.50;100365.78;5007133;28;20065;-88
2023/01/20 07:40:19;;;;;;;13.80;6.07;;;;;;;14.77;56.98;100374.75;4963103;28;20109;-90
2023/01/20 07:42:46;;;;;;;13.20;7.03;;;;;;;14.60;57.20;100370.63;5196431;23;20058;-86
2023/01/20 07:45:38;;;;;;;12.10;6.18;;;;;;;14.65;56.56;100380.88;5007792;28;20060;-87
2023/01/20 07:48:08;;;;;;;9.93;6.07;;;;;;;14.71;56.75;100382.81;4999094;28;20141;-88
2023/01/20 07:50:39;;;;;;;21.90;6.50;;;;;;;14.75;56.83;100409.28;4990804;28;20038;-84
2023/01/20 07:53:05;;;;;;;12.30;5.75;;;;;;;14.42;57.12;100376.50;4993656;28;20035;-87
2023/01/20 07:55:34;;;;;;;10.98;5.78;;;;;;;14.52;57.61;100387.81;4969925;28;20092;-87
2023/01/20 07:58:01;;;;;;;12.57;5.28;;;;;;;14.59;57.79;100389.78;4986537;28;20196;-88
2023/01/20 08:00:29;;;;;;;11.23;5.55;;;;;;;14.91;57.58;100408.19;5001215;28;20049;-87
2023/01/20 08:02:58;;;;;;;11.75;5.13;;;;;;;15.05;56.60;100373.06;4985715;28;20068;-87
2023/01/20 08:05:30;;;;;;;11.25;5.20;;;;;;;15.23;56.32;100369.88;5000035;28;20038;-88
2023/01/20 08:08:01;;;;;;;14.10;5.90;;;;;;;15.03;56.33;100367.03;5001834;28;20042;-86
2023/01/20 08:10:29;;;;;;;10.63;5.30;;;;;;;15.15;56.46;100376.28;4985230;28;20416;-87
2023/01/20 08:12:57;;;;;;;10.30;5.55;;;;;;;15.56;55.58;100378.19;4983125;28;20474;-86
2023/01/20 08:15:59;;;;;;;13.48;6.63;;;;;;;16.04;54.62;100408.06;5013907;28;20043;-89
2023/01/20 08:18:25;;;;;;;16.52;6.15;;;;;;;16.34;53.61;100395.00;5010656;28;20033;-86
2023/01/20 08:20:52;;;;;;;;;;;;;;;16.48;53.38;100395.84;5002494;28;20031;-86
2023/01/20 08:23:20;;;;;;;11.60;5.50;;;;;;;16.33;53.27;100373.50;5004418;28;19925;-87
2023/01/20 08:25:50;;;;;;;;;;;;;;;16.79;52.99;100386.34;5006678;28;20030;-87
2023/01/20 08:28:16;;;;;;;13.57;5.95;;;;;;;17.16;51.67;100386.72;4987175;28;19993;-88
2023/01/20 08:31:18;;;;;;;;;;;;;;;17.29;50.91;100390.25;5007831;28;20105;-87
2023/01/20 08:33:57;;;;;;;10.55;5.75;;;;;;;17.63;50.09;100368.41;5005755;28;19940;-87
2023/01/20 08:36:33;;;;;;;9.63;5.20;;;;;;;17.86;48.79;100351.63;5011469;28;20045;-88
2023/01/20 08:39:02;;;;;;;18.05;5.70;;;;;;;18.55;47.67;100377.19;5020618;28;20123;-87
2023/01/20 08:42:06;;;;;;;15.38;6.00;;;;;;;20.46;42.55;100374.50;4986783;28;20525;-88
2023/01/20 08:44:34;;;;;;;12.00;5.43;;;;;;;21.58;40.75;100362.72;4982928;28;20062;-87
2023/01/20 08:47:20;;;;;;;9.23;4.90;;;;;;;21.74;40.24;100372.09;4995524;28;20041;-88
2023/01/20 08:50:16;;;;;;;12.88;5.05;;;;;;;21.65;39.15;100371.63;4984073;28;20035;-88
2023/01/20 08:52:46;;;;;;;15.13;5.22;;;;;;;21.39;40.18;100353.00;4983204;28;20038;-89
2023/01/20 08:55:31;;;;;;;18.70;8.20;;;;;;;21.63;39.79;100360.13;4983461;28;20058;-87
2023/01/20 08:57:57;;;;;;;15.38;5.90;;;;;;;21.82;39.20;100362.66;4987687;28;20039;-89
2023/01/20 09:00:23;;;;;;;11.82;5.38;;;;;;;21.61;39.11;100359.53;4972391;28;20045;-88
2023/01/20 09:02:50;;;;;;;12.05;5.57;;;;;;;20.97;39.75;100312.13;4997420;28;20038;-86
2023/01/20 09:05:20;;;;;;;11.98;5.85;;;;;;;20.69;40.71;100330.06;4977268;28;20059;-87
2023/01/20 09:07:46;;;;;;;12.07;5.45;;;;;;;20.66;40.60;100328.63;4987429;28;20029;-87
2023/01/20 09:10:16;;;;;;;12.25;5.88;;;;;;;19.87;42.05;100319.72;4958662;28;20059;-86
2023/01/20 09:12:47;;;;;;;10.77;5.70;;;;;;;19.21;43.47;100320.50;4988186;28;20054;-86
2023/01/20 09:15:19;;;;;;;12.27;5.82;;;;;;;18.97;44.22;100317.59;4992311;28;20038;-86
2023/01/20 09:17:53;;;;;;;11.68;5.63;;;;;;;18.71;45.17;100346.69;4987050;28;20039;-87
2023/01/20 09:20:27;;;;;;;13.85;5.32;;;;;;;18.15;46.07;100317.59;4985490;28;20058;-89
2023/01/20 09:22:56;;;;;;;8.52;5.15;;;;;;;17.77;46.76;100315.69;4985432;28;20045;-88
2023/01/20 09:25:26;;;;;;;16.10;6.03;;;;;;;17.73;47.19;100320.69;4966221;28;20142;-87
2023/01/20 09:27:54;;;;;;;11.38;5.38;;;;;;;17.37;47.82;100315.84;4964145;28;20162;-87
2023/01/20 09:30:24;;;;;;;15.20;6.05;;;;;;;16.81;49.22;100298.19;4975217;28;20506;-87
2023/01/20 09:32:56;;;;;;;27.05;15.20;;;;;;;16.99;49.74;100323.84;4977109;28;20448;-85
2023/01/20 09:35:21;;;;;;;11.55;5.50;;;;;;;16.87;50.17;100310.91;4978350;28;20515;-86
2023/01/20 09:43:53;;;;;;;14.80;5.70;;;;;;;18.35;46.61;100293.81;4989309;28;20049;-86
2023/01/20 09:47:18;;;;;;;11.93;5.43;;;;;;;19.25;44.99;100303.47;5012041;28;20113;-87
2023/01/20 09:53:03;;;;;;;12.00;5.18;;;;;;;19.23;43.35;100285.69;4999825;28;20100;-88
2023/01/20 09:55:43;;;;;;;10.52;5.00;;;;;;;18.92;43.57;100285.56;4967345;28;20046;-85
2023/01/20 09:58:39;;;;;;;10.18;4.88;;;;;;;18.45;44.57;100284.28;5014603;28;20046;-90
2023/01/20 10:01:39;;;;;;;;;;;;;;;18.46;44.79;100275.06;5025986;28;20113;-89
2023/01/20 10:04:45;;;;;;;8.63;4.72;;;;;;;18.08;45.54;100229.75;5008707;28;19906;-90
2023/01/20 10:07:44;;;;;;;9.32;4.60;;;;;;;18.60;45.51;100259.47;4998795;28;20049;-88
2023/01/20 10:10:55;;;;;;;10.20;5.03;;;;;;;18.54;45.15;100226.63;4993338;28;20043;-90
2023/01/20 10:14:40;;;;;;;8.65;5.05;;;;;;;18.90;44.52;100246.84;5017809;28;20034;-90
2023/01/20 10:17:16;;;;;;;10.80;5.15;;;;;;;19.07;43.50;100206.19;4994424;28;20499;-89
2023/01/20 10:20:19;;;;;;;17.95;10.57;;;;;;;19.75;41.33;100220.66;4995595;28;20038;-89
2023/01/20 10:24:24;;;;;;;11.20;5.05;;;;;;;20.10;40.59;100206.25;4994136;28;20026;-91
2023/01/20 10:27:54;;;;;;;8.00;4.72;;;;;;;20.29;39.86;100180.53;4950567;29;20106;-90
2023/01/20 10:31:09;;;;;;;8.45;4.88;;;;;;;21.14;37.97;100192.84;4962109;28;20044;-88
2023/01/20 10:34:07;;;;;;;9.75;5.20;;;;;;;21.34;37.09;100156.03;4937936;29;20063;-90
2023/01/20 10:37:17;;;;;;;11.68;5.43;;;;;;;20.51;38.00;100163.53;4939195;29;20040;-89
2023/01/20 10:40:42;;;;;;;12.70;5.28;;;;;;;20.44;38.32;100180.06;4926902;29;20116;-89
2023/01/20 10:43:58;;;;;;;13.20;4.97;;;;;;;19.45;39.81;100145.09;4925263;29;20131;-90
2023/01/20 10:46:47;;;;;;;12.27;5.45;;;;;;;19.65;38.85;100141.28;4920889;29;20071;-90
2023/01/20 10:49:34;;;;;;;11.50;4.90;;;;;;;20.45;37.40;100141.59;4921911;29;20090;-89
2023/01/20 10:52:50;;;;;;;8.63;4.80;;;;;;;22.21;33.84;100113.78;4919148;29;20064;-88
2023/01/20 10:55:53;;;;;;;7.93;4.70;;;;;;;21.86;34.80;100123.06;4919506;29;20584;-89
2023/01/20 10:58:40;;;;;;;9.43;4.60;;;;;;;22.99;32.77;100097.28;4971977;29;20098;-88
2023/01/20 11:02:11;;;;;;;12.00;4.93;;;;;;;24.25;30.66;100108.88;4961843;29;20031;-88
2023/01/20 11:05:15;;;;;;;12.35;8.38;;;;;;;24.52;30.64;100095.88;5014115;28;20109;-90
2023/01/20 11:07:49;;;;;;;9.13;4.28;;;;;;;23.77;31.11;100071.19;5025738;28;20042;-90
2023/01/20 11:10:29;;;;;;;8.50;5.00;;;;;;;24.69;29.73;100092.91;4998767;28;20069;-89
2023/01/20 11:13:50;;;;;;;9.40;6.53;;;;;;;22.60;32.93;100078.19;5020325;28;20045;-90
2023/01/20 11:16:52;;;;;;;9.13;4.30;;;;;;;21.24;35.06;100078.22;4983521;28;20058;-90
2023/01/20 11:19:19;;;;;;;10.25;4.60;;;;;;;20.47;36.09;100072.28;4964373;28;20069;-90
2023/01/20 11:22:12;;;;;;;10.43;4.22;;;;;;;20.09;36.86;100049.06;4977530;28;20062;-90
2023/01/20 11:48:20;;;;;;;8.63;4.90;;;;;;;23.33;31.59;100038.44;5050944;28;20033;-90
2023/01/20 11:51:28;;;;;;;11.32;3.80;;;;;;;23.07;31.53;100073.00;5045706;28;20417;-91
2023/01/20 11:54:23;;;;;;;9.32;4.20;;;;;;;22.73;32.50;100055.84;5035470;28;20119;-89
2023/01/20 11:57:18;;;;;;;11.50;4.60;;;;;;;20.96;35.85;100075.50;5036392;28;20033;-89
2023/01/20 12:00:26;;;;;;;7.60;3.97;;;;;;;20.12;37.77;100037.69;5053268;28;20098;-88
2023/01/20 12:03:42;;;;;;;7.88;4.28;;;;;;;19.10;39.98;100063.22;5064669;28;20092;-89
2023/01/20 12:06:41;;;;;;;9.88;4.82;;;;;;;18.48;41.17;100041.63;4974958;28;20067;-89
2023/01/20 12:09:48;;;;;;;8.02;4.60;;;;;;;16.88;44.79;100048.41;4945208;29;20079;-90
2023/01/20 12:12:43;;;;;;;10.15;4.60;;;;;;;16.50;46.63;100054.59;5048349;28;20370;-88
2023/01/20 12:15:53;;;;;;;12.80;4.57;;;;;;;16.17;47.43;100063.66;5037635;28;20029;-89
2023/01/20 12:19:22;;;;;;;10.75;5.10;;;;;;;15.38;49.67;100067.22;5054839;28;20030;-89
2023/01/20 12:22:07;;;;;;;11.35;4.40;;;;;;;14.84;51.15;100030.25;5052934;28;20100;-88
2023/01/20 12:42:56;;;;;;;9.43;4.03;;;;;;;16.07;48.44;100038.88;5031865;28;20057;-89
2023/01/20 12:46:03;;;;;;;;;;;;;;;15.56;49.67;100015.13;5037287;28;20052;-89
2023/01/20 12:49:16;;;;;;;11.07;4.50;;;;;;;15.39;50.93;100041.81;5028530;28;19911;-91
2023/01/20 12:52:53;;;;;;;11.65;4.63;;;;;;;14.89;52.24;100031.34;5010741;28;20040;-90
2023/01/20 12:55:55;;;;;;;11.23;4.53;;;;;;;14.65;52.61;100000.22;5010666;28;20042;-91
2023/01/20 12:59:45;;;;;;;12.15;4.55;;;;;;;14.51;53.46;100002.03;5024833;28;20040;-91
2023/01/20 14:25:57;;;;;;;9.52;5.13;;;;;;;12.98;64.21;100125.09;1573662;23;20320;-89
2023/01/20 14:28:42;;;;;;;11.18;4.43;;;;;;;12.76;63.63;100104.50;4988639;28;20061;-89
2023/01/20 14:32:14;;;;;;;7.97;3.50;;;;;;;12.73;62.76;100104.88;4991313;28;20031;-89
2023/01/20 14:56:01;;;;;;;9.77;1.63;;;;;;;12.54;59.61;100087.41;5013470;28;20060;-95
2023/01/20 14:59:16;;;;;;;7.18;1.70;;;;;;;12.75;58.88;100119.84;4979329;28;20073;-92
2023/01/20 15:01:55;;;;;;;3.63;1.77;;;;;;;12.31;59.26;100095.63;4993071;28;20049;-92
2023/01/20 15:20:34;;;;;;;7.55;1.58;;;;;;;12.18;60.33;100139.38;5548643;22;20111;-91
2023/01/20 15:31:20;;;;;;;2.28;1.20;;;;;;;11.99;62.74;100100.34;5603799;23;20118;-89
2023/01/20 15:34:26;;;;;;;4.47;1.42;;;;;;;11.84;63.50;100084.94;5017357;28;20042;-85
2023/01/20 15:37:28;;;;;;;2.35;1.20;;;;;;;11.83;63.16;100094.06;5013229;28;20061;-88
2023/01/20 15:40:17;;;;;;;4.55;1.80;;;;;;;11.82;63.39;100113.06;5027390;28;20057;-90
2023/01/20 15:43:02;;;;;;;3.17;1.30;;;;;;;11.67;64.46;100110.34;5003662;28;20042;-91
2023/01/20 15:45:33;;;;;;;2.92;1.20;;;;;;;11.66;63.70;100108.69;4994468;28;20043;-90
2023/01/20 15:48:23;;;;;;;4.75;1.30;;;;;;;11.61;64.56;100121.84;5019599;28;20061;-90
2023/01/20 16:06:39;;;;;;;4.03;1.73;;;;;;;11.19;69.03;100089.03;5009695;28;20084;-90
2023/01/20 16:26:21;;;;;;;3.30;1.40;;;;;;;10.97;73.15;100120.25;5192831;23;20050;-92
2023/01/20 16:31:30;;;;;;;7.78;2.78;;;;;;;10.74;73.90;100109.44;4239665;23;20033;-90
2023/01/20 16:34:11;;;;;;;1.77;0.80;;;;;;;10.66;74.04;100114.03;5015342;28;20065;-91
2023/01/20 16:36:41;;;;;;;6.40;1.17;;;;;;;10.78;75.07;100186.06;5001087;28;20037;-89
2023/01/20 16:39:10;;;;;;;3.65;1.80;;;;;;;10.51;75.59;100140.78;4998195;28;20073;-87
2023/01/20 16:45:30;;;;;;;5.05;1.52;;;;;;;10.64;75.90;100119.59;5081847;23;20054;-90
2023/01/20 16:48:16;;;;;;;5.72;2.10;;;;;;;10.58;76.13;100131.03;5001689;28;20145;-86
2023/01/20 16:50:42;;;;;;;4.30;1.38;;;;;;;10.59;76.20;100145.31;4990990;28;20116;-83
2023/01/20 16:53:10;;;;;;;5.60;1.73;;;;;;;10.60;76.26;100153.19;4987043;28;20046;-86
2023/01/20 16:55:52;;;;;;;6.55;1.92;;;;;;;10.48;77.37;100182.28;5001606;28;20093;-87
2023/01/20 16:58:39;;;;;;;5.45;1.23;;;;;;;10.28;77.36;100152.31;5004625;28;20084;-85
2023/01/20 17:01:10;;;;;;;8.20;1.55;;;;;;;10.26;77.68;100148.91;5012425;28;20056;-86
2023/01/20 17:03:40;;;;;;;6.47;1.50;;;;;;;10.46;77.88;100194.22;5004311;28;20033;-88
2023/01/20 17:06:30;;;;;;;5.03;1.25;;;;;;;10.16;78.63;100142.91;4979801;28;20379;-87
2023/01/20 17:09:00;;;;;;;5.18;1.20;;;;;;;10.42;78.06;100188.38;4998524;28;20027;-88
2023/01/20 17:19:40;;;;;;;6.20;1.45;;;;;;;10.12;80.79;100208.69;3554512;23;20114;-93
2023/01/20 17:22:08;;;;;;;4.88;1.35;;;;;;;10.11;81.32;100205.19;4983546;28;20031;-88
2023/01/20 17:24:43;;;;;;;5.80;1.20;;;;;;;9.88;81.57;100183.53;4976246;28;20047;-90
2023/01/20 17:28:16;;;;;;;8.88;1.10;;;;;;;9.92;80.89;100182.16;4981895;28;20121;-91
2023/01/20 17:47:23;;;;;;;5.35;0.90;;;;;;;9.73;81.06;100196.78;5232752;23;19915;-90
2023/01/20 18:09:00;;;;;;;6.10;1.30;;;;;;;9.94;79.13;100219.59;5126271;22;20068;-90
2023/01/20 18:11:33;;;;;;;5.95;1.27;;;;;;;10.19;78.67;100260.75;5089335;23;20145;-90
2023/01/20 18:14:01;;;;;;;12.75;1.33;;;;;;;9.93;77.80;100213.41;4968993;28;20507;-89
2023/01/20 18:16:38;;;;;;;6.60;1.50;;;;;;;10.21;77.28;100245.31;4993231;28;20043;-88
2023/01/20 18:19:32;;;;;;;;;;;;;;;10.31;77.33;100245.16;4990067;28;20035;-86
2023/01/20 18:22:07;;;;;;;8.75;1.67;;;;;;;10.25;76.93;100237.72;4989633;28;19963;-86
2023/01/20 18:24:33;;;;;;;7.88;1.70;;;;;;;10.13;76.92;100221.13;4978617;28;20034;-87
2023/01/20 18:27:05;;;;;;;9.00;1.40;;;;;;;10.23;76.78;100235.22;4962697;28;20039;-87
2023/01/20 18:30:16;;;;;;;10.73;1.50;;;;;;;10.12;76.80;100219.44;4985347;28;20050;-90
2023/01/20 18:58:59;;;;;;;7.43;1.63;;;;;;;9.97;76.81;100223.81;4318264;23;20062;-87
2023/01/20 19:01:35;;;;;;;9.10;1.40;;;;;;;10.07;77.09;100249.50;5000730;28;20035;-91
2023/01/20 19:04:23;;;;;;;8.50;1.52;;;;;;;10.16;77.17;100261.09;4986639;28;20035;-88
2023/01/20 20:50:46;;;;;;;16.65;2.08;;;;;;;9.48;82.52;100297.91;4955861;29;20180;-94
2023/01/20 20:56:22;;;;;;;14.18;2.20;;;;;;;9.73;81.85;100319.44;5412016;23;20058;-90
2023/01/20 20:59:35;;;;;;;10.20;2.20;;;;;;;9.94;81.42;100333.22;5005371;28;20054;-90
2023/01/20 22:37:30;;;;;;;2.70;1.00;;;;;;;6.87;75.43;100521.75;5016400;28;20057;-88
2023/01/20 22:40:43;;;;;;;3.47;1.20;;;;;;;6.85;75.46;100528.25;5043090;23;20034;-90
2023/01/20 22:54:19;;;;;;;2.35;1.30;;;;;;;6.61;76.93;100550.84;5513718;23;20077;31
2023/01/20 23:26:21;;;;;;;5.35;2.40;;;;;;;6.20;78.08;100587.41;5098953;23;20107;-89
2023/01/20 23:34:22;;;;;;;5.20;2.00;;;;;;;5.93;78.50;100569.28;5213678;23;20046;-92
2023/01/20 23:47:28;;;;;;;7.82;3.88;;;;;;;6.06;80.00;100610.00;4703386;26;20050;-92
2023/01/20 23:55:09;;;;;;;4.05;2.00;;;;;;;5.70;82.25;100614.78;5806169;23;19920;-90
